createdAt,value
2022-08-05T00:02:11.260Z,18.60
2022-08-05T00:04:46.117Z,18.60
2022-08-05T00:07:58.799Z,18.60
2022-08-05T00:10:18.130Z,18.60
2022-08-05T00:12:56.388Z,18.60
2022-08-05T00:15:56.413Z,18.60
2022-08-05T00:18:22.765Z,18.60
2022-08-05T00:20:58.139Z,18.60
2022-08-05T00:23:44.384Z,18.60
2022-08-05T00:26:22.050Z,18.60
2022-08-05T00:28:51.661Z,18.50
2022-08-05T00:31:53.237Z,18.50
2022-08-05T00:34:54.152Z,18.50
2022-08-05T00:37:14.315Z,18.50
2022-08-05T00:39:44.129Z,18.50
2022-08-05T00:42:31.807Z,18.50
2022-08-05T00:45:00.421Z,18.50
2022-08-05T00:47:57.043Z,18.60
2022-08-05T00:50:25.176Z,18.60
2022-08-05T00:53:00.183Z,18.50
2022-08-05T00:55:48.159Z,18.50
2022-08-05T00:58:27.406Z,18.40
2022-08-05T01:00:56.046Z,18.30
2022-08-05T01:03:34.085Z,18.10
2022-08-05T01:06:03.827Z,18.00
2022-08-05T01:08:44.218Z,17.90
2022-08-05T01:11:22.390Z,17.80
2022-08-05T01:14:10.191Z,17.50
2022-08-05T01:16:49.455Z,17.50
2022-08-05T01:20:01.568Z,17.40
2022-08-05T01:22:34.109Z,17.40
2022-08-05T01:25:40.387Z,17.40
2022-08-05T01:28:31.257Z,17.40
2022-08-05T01:31:03.450Z,17.40
2022-08-05T01:33:43.183Z,17.50
2022-08-05T01:36:28.222Z,17.50
2022-08-05T01:39:00.161Z,17.50
2022-08-05T01:41:38.199Z,17.50
2022-08-05T01:44:15.434Z,17.50
2022-08-05T01:46:51.219Z,17.40
2022-08-05T01:49:26.336Z,17.50
2022-08-05T01:52:23.214Z,17.50
2022-08-05T01:55:14.207Z,17.50
2022-08-05T01:58:10.636Z,17.60
2022-08-05T02:00:52.219Z,17.60
2022-08-05T02:03:31.939Z,17.70
2022-08-05T02:06:33.973Z,17.70
2022-08-05T02:09:00.754Z,17.80
2022-08-05T02:11:42.208Z,17.80
2022-08-05T02:14:14.087Z,17.70
2022-08-05T02:16:55.232Z,17.70
2022-08-05T02:19:34.381Z,17.70
2022-08-05T02:22:25.957Z,17.70
2022-08-05T02:25:12.667Z,17.80
2022-08-05T02:27:59.304Z,17.90
2022-08-05T02:30:34.522Z,17.90
2022-08-05T02:33:12.255Z,18.00
2022-08-05T02:35:50.967Z,18.10
2022-08-05T02:38:37.291Z,18.10
2022-08-05T02:41:17.337Z,18.20
2022-08-05T02:44:05.880Z,18.20
2022-08-05T02:46:44.003Z,18.30
2022-08-05T02:49:36.983Z,18.20
2022-08-05T02:52:09.446Z,18.20
2022-08-05T02:54:50.740Z,18.10
2022-08-05T02:58:12.236Z,18.10
2022-08-05T03:00:22.298Z,18.00
2022-08-05T03:02:54.874Z,18.10
2022-08-05T03:06:53.647Z,18.10
2022-08-05T03:08:29.905Z,18.10
2022-08-05T03:11:55.827Z,18.10
2022-08-05T03:14:03.175Z,18.10
2022-08-05T03:16:38.491Z,18.10
2022-08-05T03:19:12.738Z,18.10
2022-08-05T03:21:53.300Z,18.10
2022-08-05T03:24:29.396Z,18.10
2022-08-05T03:27:06.769Z,18.10
2022-08-05T03:29:44.577Z,18.00
2022-08-05T03:32:31.022Z,17.90
2022-08-05T03:34:59.704Z,17.90
2022-08-05T03:37:46.087Z,17.90
2022-08-05T03:40:24.453Z,17.70
2022-08-05T03:43:58.663Z,17.70
2022-08-05T03:45:57.835Z,17.70
2022-08-05T03:48:35.122Z,17.70
2022-08-05T03:52:38.976Z,17.70
2022-08-05T03:55:52.829Z,17.50
2022-08-05T03:57:16.589Z,17.50
2022-08-05T04:00:01.578Z,17.50
2022-08-05T04:02:37.890Z,17.40
2022-08-05T04:05:16.390Z,17.40
2022-08-05T04:07:53.187Z,17.40
2022-08-05T04:10:38.205Z,17.30
2022-08-05T04:13:07.552Z,17.30
2022-08-05T04:16:02.830Z,17.20
2022-08-05T04:18:32.104Z,17.30
2022-08-05T04:21:06.349Z,17.20
2022-08-05T04:23:57.160Z,17.20
2022-08-05T04:26:32.678Z,17.20
2022-08-05T04:29:01.047Z,17.20
2022-08-05T04:31:42.995Z,17.20
2022-08-05T04:34:31.870Z,17.10
2022-08-05T04:37:05.378Z,17.20
2022-08-05T04:39:35.333Z,17.20
2022-08-05T04:42:12.384Z,17.20
2022-08-05T04:44:40.879Z,17.20
2022-08-05T04:47:20.075Z,17.20
2022-08-05T04:50:02.432Z,17.20
2022-08-05T04:52:43.380Z,17.20
2022-08-05T04:56:14.643Z,17.20
2022-08-05T04:58:28.366Z,17.30
2022-08-05T05:00:57.830Z,17.30
2022-08-05T05:03:41.851Z,17.20
2022-08-05T05:06:39.233Z,17.20
2022-08-05T05:09:06.396Z,17.20
2022-08-05T05:11:41.474Z,17.30
2022-08-05T05:14:18.407Z,17.30
2022-08-05T05:16:56.263Z,17.30
2022-08-05T05:19:36.908Z,17.30
2022-08-05T05:22:24.496Z,17.30
2022-08-05T05:25:01.447Z,17.30
2022-08-05T05:27:53.754Z,17.30
2022-08-05T05:30:33.459Z,17.40
2022-08-05T05:33:09.041Z,17.40
2022-08-05T05:35:51.877Z,17.40
2022-08-05T05:38:26.786Z,17.40
2022-08-05T05:41:02.435Z,17.30
2022-08-05T05:43:56.721Z,17.30
2022-08-05T05:46:26.435Z,17.30
2022-08-05T05:48:54.585Z,17.30
2022-08-05T05:51:30.452Z,17.30
2022-08-05T05:54:18.183Z,17.40
2022-08-05T05:56:54.497Z,17.30
2022-08-05T05:59:29.344Z,17.40
2022-08-05T06:02:16.428Z,17.40
2022-08-05T06:04:49.216Z,17.50
2022-08-05T06:07:41.141Z,17.50
2022-08-05T06:10:11.653Z,17.40
2022-08-05T06:12:48.477Z,17.50
2022-08-05T06:15:23.946Z,17.50
2022-08-05T06:18:00.482Z,17.50
2022-08-05T06:20:28.599Z,17.50
2022-08-05T06:23:04.162Z,17.60
2022-08-05T06:26:12.661Z,17.50
2022-08-05T06:28:28.432Z,17.60
2022-08-05T06:30:56.865Z,17.60
2022-08-05T06:34:06.191Z,17.70
2022-08-05T06:36:21.548Z,17.70
2022-08-05T06:39:01.510Z,17.80
2022-08-05T06:41:31.620Z,17.90
2022-08-05T06:44:09.496Z,17.90
2022-08-05T06:46:37.685Z,18.00
2022-08-05T06:49:13.462Z,18.00
2022-08-05T06:51:41.914Z,18.00
2022-08-05T06:54:19.014Z,18.00
2022-08-05T06:56:54.683Z,18.10
2022-08-05T06:59:58.303Z,18.10
2022-08-05T07:02:30.128Z,18.10
2022-08-05T07:05:15.336Z,18.20
2022-08-05T07:07:49.046Z,18.20
2022-08-05T07:10:23.520Z,18.30
2022-08-05T07:13:34.100Z,18.30
2022-08-05T07:17:56.977Z,18.20
2022-08-05T07:20:05.751Z,18.30
2022-08-05T07:22:28.730Z,18.30
2022-08-05T07:24:59.395Z,18.40
2022-08-05T07:27:57.421Z,18.30
2022-08-05T07:30:27.096Z,18.30
2022-08-05T07:33:09.768Z,18.50
2022-08-05T07:36:03.940Z,18.50
2022-08-05T07:38:43.519Z,18.60
2022-08-05T07:42:13.252Z,18.60
2022-08-05T07:44:18.814Z,18.60
2022-08-05T07:46:54.533Z,18.70
2022-08-05T07:49:22.627Z,18.80
2022-08-05T07:51:54.603Z,18.80
2022-08-05T07:54:41.178Z,18.80
2022-08-05T07:57:58.785Z,18.90
2022-08-05T08:00:17.925Z,19.00
2022-08-05T08:03:14.229Z,19.10
2022-08-05T08:05:47.282Z,19.20
2022-08-05T08:08:26.100Z,19.30
2022-08-05T08:10:56.741Z,19.30
2022-08-05T08:13:31.601Z,19.20
2022-08-05T08:16:35.200Z,19.20
2022-08-05T08:19:05.591Z,19.30
2022-08-05T08:21:34.552Z,19.40
2022-08-05T08:24:14.063Z,19.40
2022-08-05T08:26:43.753Z,19.40
2022-08-05T08:30:03.267Z,19.40
2022-08-05T08:32:08.002Z,19.40
2022-08-05T08:34:45.593Z,19.50
2022-08-05T08:37:14.880Z,19.70
2022-08-05T08:39:53.695Z,19.80
2022-08-05T08:42:50.499Z,19.80
2022-08-05T08:45:26.755Z,19.90
2022-08-05T08:48:11.838Z,19.70
2022-08-05T08:51:07.709Z,19.70
2022-08-05T08:53:46.126Z,19.90
2022-08-05T08:56:27.632Z,19.90
2022-08-05T08:58:59.285Z,19.90
2022-08-05T09:01:35.609Z,19.80
2022-08-05T09:04:10.844Z,19.90
2022-08-05T09:06:45.665Z,19.90
2022-08-05T09:09:18.041Z,20.10
2022-08-05T09:11:55.315Z,20.20
2022-08-05T09:14:58.881Z,20.50
2022-08-05T09:17:41.243Z,20.60
2022-08-05T09:20:13.282Z,20.80
2022-08-05T09:23:18.656Z,21.00
2022-08-05T09:26:01.346Z,21.40
2022-08-05T09:28:38.667Z,21.30
2022-08-05T09:31:23.442Z,21.30
2022-08-05T09:34:09.822Z,21.50
2022-08-05T09:36:45.879Z,21.70
2022-08-05T09:39:45.106Z,21.50
2022-08-05T09:42:23.683Z,21.60
2022-08-05T09:45:17.895Z,21.70
2022-08-05T09:47:56.435Z,21.60
2022-08-05T09:50:44.419Z,21.60
2022-08-05T09:53:23.023Z,21.70
2022-08-05T09:56:13.525Z,21.90
2022-08-05T09:58:57.905Z,22.00
2022-08-05T10:01:32.997Z,21.70
2022-08-05T10:04:10.429Z,21.20
2022-08-05T10:06:54.694Z,21.00
2022-08-05T10:09:27.825Z,20.70
2022-08-05T10:12:31.103Z,20.50
2022-08-05T10:15:20.175Z,20.60
2022-08-05T10:18:13.684Z,21.00
2022-08-05T10:20:47.732Z,21.50
2022-08-05T10:23:55.844Z,21.90
2022-08-05T10:26:14.864Z,22.20
2022-08-05T10:28:50.732Z,22.20
2022-08-05T10:32:53.302Z,22.30
2022-08-05T10:34:19.731Z,22.50
2022-08-05T10:36:55.584Z,22.50
2022-08-05T10:39:59.236Z,22.90
2022-08-05T10:42:33.611Z,23.20
2022-08-05T10:45:23.821Z,23.30
2022-08-05T10:48:31.347Z,23.50
2022-08-05T10:51:21.686Z,23.80
2022-08-05T10:53:58.493Z,23.30
2022-08-05T10:56:36.717Z,23.20
2022-08-05T11:00:02.260Z,23.40
2022-08-05T11:02:34.980Z,23.20
2022-08-05T11:05:05.625Z,23.60
2022-08-05T11:08:02.680Z,23.90
2022-08-05T11:10:32.503Z,23.90
2022-08-05T11:13:07.750Z,23.40
2022-08-05T11:16:01.307Z,23.30
2022-08-05T11:18:37.738Z,23.10
2022-08-05T11:21:48.913Z,23.40
2022-08-05T11:24:30.530Z,23.80
2022-08-05T11:27:45.813Z,24.00
2022-08-05T11:30:26.787Z,23.50
2022-08-05T11:33:43.999Z,22.90
2022-08-05T11:36:34.517Z,22.30
2022-08-05T11:39:09.311Z,22.30
2022-08-05T11:41:56.314Z,22.30
2022-08-05T11:44:53.244Z,22.60
2022-08-05T11:47:49.896Z,23.10
2022-08-05T11:50:19.007Z,23.30
2022-08-05T11:52:57.745Z,23.10
2022-08-05T11:55:32.110Z,22.90
2022-08-05T11:58:19.067Z,22.60
2022-08-05T12:00:52.788Z,22.30
2022-08-05T12:03:31.985Z,22.40
2022-08-05T12:06:02.955Z,22.70
2022-08-05T12:08:39.272Z,23.00
2022-08-05T12:11:20.882Z,23.10
2022-08-05T12:14:04.394Z,23.00
2022-08-05T12:16:38.347Z,22.70
2022-08-05T12:20:17.247Z,22.40
2022-08-05T12:22:09.398Z,22.30
2022-08-05T12:24:50.442Z,22.10
2022-08-05T12:27:25.066Z,22.00
2022-08-05T12:30:08.897Z,22.00
2022-08-05T12:32:50.338Z,22.30
2022-08-05T12:35:37.018Z,22.20
2022-08-05T12:38:08.104Z,22.50
2022-08-05T12:40:45.797Z,23.10
2022-08-05T12:43:20.638Z,23.70
2022-08-05T12:46:02.878Z,23.60
2022-08-05T12:48:40.114Z,23.10
2022-08-05T12:51:21.700Z,22.70
2022-08-05T12:54:16.533Z,23.00
2022-08-05T12:56:59.821Z,23.10
2022-08-05T12:59:46.744Z,23.10
2022-08-05T13:02:32.907Z,23.20
2022-08-05T13:05:06.949Z,23.40
2022-08-05T13:08:00.551Z,23.50
2022-08-05T13:10:32.273Z,23.60
2022-08-05T13:13:09.033Z,23.50
2022-08-05T13:15:49.198Z,23.10
2022-08-05T13:18:25.872Z,23.10
2022-08-05T13:20:55.990Z,23.00
2022-08-05T13:23:24.060Z,23.20
2022-08-05T13:26:01.112Z,23.30
2022-08-05T13:28:35.882Z,23.40
2022-08-05T13:31:14.349Z,23.50
2022-08-05T13:34:21.709Z,23.20
2022-08-05T13:36:39.684Z,23.40
2022-08-05T13:39:24.738Z,23.80
2022-08-05T13:42:02.941Z,23.60
2022-08-05T13:44:40.000Z,23.60
2022-08-05T13:47:34.854Z,23.10
2022-08-05T13:50:14.797Z,22.60
2022-08-05T13:52:46.075Z,22.50
2022-08-05T13:55:41.714Z,23.00
2022-08-05T13:58:30.883Z,23.40
2022-08-05T14:01:06.078Z,23.60
2022-08-05T14:03:35.478Z,23.60
2022-08-05T14:06:26.830Z,23.70
2022-08-05T14:08:56.639Z,23.50
2022-08-05T14:11:34.882Z,22.90
2022-08-05T14:14:23.423Z,22.60
2022-08-05T14:17:00.922Z,22.40
2022-08-05T14:19:29.370Z,22.50
2022-08-05T14:22:10.278Z,22.50
2022-08-05T14:24:41.421Z,22.50
2022-08-05T14:27:20.921Z,22.40
2022-08-05T14:29:52.125Z,22.40
2022-08-05T14:32:27.953Z,22.30
2022-08-05T14:34:57.046Z,22.20
2022-08-05T14:37:44.810Z,22.00
2022-08-05T14:40:17.685Z,22.20
2022-08-05T14:42:51.955Z,22.30
2022-08-05T14:45:20.362Z,22.10
2022-08-05T14:48:03.726Z,22.10
2022-08-05T14:50:35.994Z,22.20
2022-08-05T14:53:14.945Z,22.40
2022-08-05T14:55:52.050Z,22.70
2022-08-05T14:58:33.988Z,22.80
2022-08-05T15:01:02.229Z,22.70
2022-08-05T15:03:39.270Z,22.50
2022-08-05T15:06:15.072Z,22.50
2022-08-05T15:09:01.563Z,22.30
2022-08-05T15:11:50.921Z,22.30
2022-08-05T15:14:34.615Z,22.40
2022-08-05T15:17:44.798Z,22.50
2022-08-05T15:20:04.981Z,22.50
2022-08-05T15:22:33.152Z,22.50
2022-08-05T15:25:11.472Z,22.50
2022-08-05T15:27:52.269Z,22.40
2022-08-05T15:30:28.979Z,22.50
2022-08-05T15:32:57.040Z,22.40
2022-08-05T15:35:36.076Z,22.30
2022-08-05T15:38:34.708Z,22.20
2022-08-05T15:41:21.998Z,22.10
2022-08-05T15:43:48.754Z,22.00
2022-08-05T15:46:24.069Z,22.20
2022-08-05T15:49:00.627Z,22.30
2022-08-05T15:52:04.323Z,22.40
2022-08-05T15:54:34.520Z,22.30
2022-08-05T15:57:18.005Z,22.20
2022-08-05T15:59:57.780Z,22.00
2022-08-05T16:02:33.329Z,21.90
2022-08-05T16:05:01.756Z,21.90
2022-08-05T16:07:37.007Z,22.00
2022-08-05T16:10:05.669Z,21.90
2022-08-05T16:12:46.032Z,21.90
2022-08-05T16:15:18.803Z,21.80
2022-08-05T16:17:58.079Z,21.70
2022-08-05T16:20:27.903Z,21.70
2022-08-05T16:23:03.030Z,21.60
2022-08-05T16:25:32.129Z,21.50
2022-08-05T16:28:10.416Z,21.50
2022-08-05T16:30:41.614Z,21.40
2022-08-05T16:33:16.053Z,21.50
2022-08-05T16:35:44.717Z,21.50
2022-08-05T16:38:25.310Z,21.50
2022-08-05T16:41:00.030Z,21.40
2022-08-05T16:43:38.087Z,21.30
2022-08-05T16:46:24.253Z,21.40
2022-08-05T16:48:59.120Z,21.20
2022-08-05T16:51:31.065Z,21.10
2022-08-05T16:54:23.939Z,21.10
2022-08-05T16:57:02.009Z,21.20
2022-08-05T17:00:01.380Z,21.20
2022-08-05T17:02:26.740Z,21.20
2022-08-05T17:05:03.060Z,21.10
2022-08-05T17:07:39.329Z,21.20
2022-08-05T17:10:22.107Z,21.30
2022-08-05T17:12:55.711Z,21.30
2022-08-05T17:15:48.485Z,21.20
2022-08-05T17:18:20.553Z,20.80
2022-08-05T17:20:55.100Z,20.90
2022-08-05T17:24:04.710Z,20.70
2022-08-05T17:26:18.118Z,20.60
2022-08-05T17:28:47.205Z,20.40
2022-08-05T17:31:24.396Z,20.20
2022-08-05T17:34:11.045Z,20.20
2022-08-05T17:36:53.093Z,20.20
2022-08-05T17:39:24.242Z,20.10
2022-08-05T17:42:17.352Z,20.10
2022-08-05T17:44:50.442Z,20.00
2022-08-05T17:47:26.150Z,20.00
2022-08-05T17:50:04.346Z,19.90
2022-08-05T17:52:54.777Z,19.70
2022-08-05T17:55:34.266Z,19.60
2022-08-05T17:58:21.618Z,19.60
2022-08-05T18:01:00.909Z,19.60
2022-08-05T18:04:03.929Z,19.60
2022-08-05T18:06:29.254Z,19.50
2022-08-05T18:09:06.141Z,19.50
2022-08-05T18:11:42.656Z,19.40
2022-08-05T18:14:20.587Z,19.30
2022-08-05T18:16:51.880Z,19.30
2022-08-05T18:19:27.124Z,19.20
2022-08-05T18:22:09.499Z,19.10
2022-08-05T18:24:47.164Z,19.10
2022-08-05T18:27:18.869Z,19.10
2022-08-05T18:29:54.870Z,19.00
2022-08-05T18:32:28.239Z,18.90
2022-08-05T18:35:05.152Z,18.90
2022-08-05T18:37:40.352Z,18.80
2022-08-05T18:40:34.315Z,18.80
2022-08-05T18:43:05.223Z,18.70
2022-08-05T18:45:44.205Z,18.70
2022-08-05T18:48:30.564Z,18.60
2022-08-05T18:52:05.559Z,18.50
2022-08-05T18:54:13.965Z,18.50
2022-08-05T18:56:51.159Z,18.40
2022-08-05T18:59:44.038Z,18.30
2022-08-05T19:02:27.985Z,18.20
2022-08-05T19:06:05.930Z,18.10
2022-08-05T19:07:55.227Z,18.00
2022-08-05T19:10:31.182Z,17.90
2022-08-05T19:12:59.727Z,17.80
2022-08-05T19:15:59.408Z,17.70
2022-08-05T19:18:25.181Z,17.70
2022-08-05T19:21:00.200Z,17.60
2022-08-05T19:24:07.723Z,17.50
2022-08-05T19:26:29.209Z,17.50
2022-08-05T19:28:57.413Z,17.40
2022-08-05T19:31:33.817Z,17.30
2022-08-05T19:34:13.133Z,17.30
2022-08-05T19:36:53.198Z,17.20
2022-08-05T19:39:21.662Z,17.10
2022-08-05T19:42:08.078Z,17.00
2022-08-05T19:44:45.240Z,17.00
2022-08-05T19:47:21.242Z,16.90
2022-08-05T19:49:51.598Z,16.90
2022-08-05T19:52:32.411Z,16.80
2022-08-05T19:55:06.941Z,16.70
2022-08-05T19:58:28.130Z,16.70
2022-08-05T20:00:52.660Z,16.70
2022-08-05T20:03:27.236Z,16.60
2022-08-05T20:06:15.305Z,16.60
2022-08-05T20:08:51.303Z,16.60
2022-08-05T20:11:21.416Z,16.50
2022-08-05T20:14:12.072Z,16.40
2022-08-05T20:16:41.082Z,16.40
2022-08-05T20:19:18.264Z,16.30
2022-08-05T20:21:49.060Z,16.30
2022-08-05T20:24:24.322Z,16.20
2022-08-05T20:26:52.779Z,16.20
2022-08-05T20:29:29.239Z,16.10
2022-08-05T20:31:59.815Z,16.00
2022-08-05T20:34:34.286Z,15.90
2022-08-05T20:37:04.444Z,15.80
2022-08-05T20:39:52.360Z,15.70
2022-08-05T20:42:26.481Z,15.60
2022-08-05T20:45:04.318Z,15.60
2022-08-05T20:47:33.560Z,15.50
2022-08-05T20:50:16.353Z,15.40
2022-08-05T20:52:46.383Z,15.30
2022-08-05T20:55:55.713Z,15.20
2022-08-05T20:58:16.160Z,15.20
2022-08-05T21:00:54.889Z,15.10
2022-08-05T21:03:25.095Z,15.10
2022-08-05T21:06:00.300Z,15.00
2022-08-05T21:08:41.859Z,15.00
2022-08-05T21:12:07.206Z,15.00
2022-08-05T21:14:05.369Z,15.00
2022-08-05T21:16:41.326Z,15.00
2022-08-05T21:19:09.533Z,14.90
2022-08-05T21:21:50.496Z,14.90
2022-08-05T21:24:20.008Z,14.90
2022-08-05T21:26:58.467Z,14.90
2022-08-05T21:29:32.117Z,14.90
2022-08-05T21:32:09.322Z,14.80
2022-08-05T21:34:45.187Z,14.80
2022-08-05T21:37:41.377Z,14.80
2022-08-05T21:40:13.735Z,14.80
2022-08-05T21:42:51.852Z,14.80
2022-08-05T21:45:24.941Z,14.70
2022-08-05T21:48:14.367Z,14.70
2022-08-05T21:50:53.216Z,14.70
2022-08-05T21:53:29.343Z,14.60
2022-08-05T21:56:05.571Z,14.60
2022-08-05T21:58:58.351Z,14.60
2022-08-05T22:01:35.422Z,14.50
2022-08-05T22:04:13.405Z,14.50
2022-08-05T22:06:42.184Z,14.50
2022-08-05T22:09:25.347Z,14.50
2022-08-05T22:12:13.395Z,14.50
2022-08-05T22:14:49.379Z,14.40
2022-08-05T22:17:17.493Z,14.50
2022-08-05T22:19:57.159Z,14.40
2022-08-05T22:22:31.927Z,14.40
2022-08-05T22:25:31.110Z,14.40
2022-08-05T22:28:12.620Z,14.30
2022-08-05T22:30:57.218Z,14.20
2022-08-05T22:33:57.228Z,14.20
2022-08-05T22:36:25.392Z,14.20
2022-08-05T22:38:53.725Z,14.20
2022-08-05T22:42:10.516Z,14.10
2022-08-05T22:44:16.588Z,14.10
2022-08-05T22:46:54.422Z,14.00
2022-08-05T22:50:18.391Z,13.90
2022-08-05T22:52:30.346Z,13.90
2022-08-05T22:55:04.479Z,13.90
2022-08-05T22:58:02.386Z,13.80
2022-08-05T23:00:37.482Z,13.80
2022-08-05T23:03:13.410Z,13.70
2022-08-05T23:05:41.759Z,13.70
2022-08-05T23:08:18.398Z,13.70
2022-08-05T23:10:46.443Z,13.70
2022-08-05T23:13:21.436Z,13.70
2022-08-05T23:15:50.332Z,13.70
2022-08-05T23:18:28.626Z,13.70
2022-08-05T23:20:57.339Z,13.70
2022-08-05T23:23:34.417Z,13.60
2022-08-05T23:26:03.990Z,13.60
2022-08-05T23:28:38.433Z,13.60
2022-08-05T23:31:24.591Z,13.50
2022-08-05T23:34:06.678Z,13.40
2022-08-05T23:36:38.608Z,13.40
2022-08-05T23:39:23.763Z,13.30
2022-08-05T23:42:01.246Z,13.20
2022-08-05T23:44:37.453Z,13.20
2022-08-05T23:47:15.430Z,13.20
2022-08-05T23:49:52.161Z,13.20
2022-08-05T23:52:35.853Z,13.20
2022-08-05T23:55:16.437Z,13.20
2022-08-05T23:57:52.890Z,13.20
